createdAt,value
2022-11-29T00:01:02.907Z,12.10
2022-11-29T00:03:30.536Z,11.82
2022-11-29T00:05:58.346Z,12.18
2022-11-29T00:08:25.928Z,13.23
2022-11-29T00:10:53.742Z,13.68
2022-11-29T00:13:21.224Z,13.05
2022-11-29T00:15:48.751Z,14.07
2022-11-29T00:18:16.787Z,13.93
2022-11-29T00:20:44.317Z,13.50
2022-11-29T00:23:11.904Z,11.13
2022-11-29T00:25:39.754Z,11.07
2022-11-29T00:28:07.264Z,11.75
2022-11-29T00:30:34.852Z,12.50
2022-11-29T00:33:03.637Z,12.35
2022-11-29T00:35:31.277Z,13.43
2022-11-29T00:37:59.125Z,12.75
2022-11-29T00:40:26.775Z,12.77
2022-11-29T00:42:54.326Z,12.43
2022-11-29T00:45:21.834Z,12.85
2022-11-29T00:47:49.303Z,11.52
2022-11-29T00:50:17.044Z,11.57
2022-11-29T00:52:44.393Z,11.35
2022-11-29T00:55:11.897Z,12.43
2022-11-29T00:57:39.704Z,12.32
2022-11-29T01:00:07.565Z,12.15
2022-11-29T01:02:35.431Z,11.40
2022-11-29T01:05:03.244Z,12.27
2022-11-29T01:07:30.629Z,11.30
2022-11-29T01:09:58.043Z,11.98
2022-11-29T01:12:25.497Z,11.65
2022-11-29T01:14:52.872Z,11.40
2022-11-29T01:17:20.384Z,11.45
2022-11-29T01:19:50.834Z,11.90
2022-11-29T01:22:18.853Z,11.48
2022-11-29T01:24:46.547Z,12.73
2022-11-29T01:27:14.454Z,12.40
2022-11-29T01:29:41.897Z,10.75
2022-11-29T01:32:09.594Z,11.88
2022-11-29T01:34:38.455Z,11.10
2022-11-29T01:37:05.884Z,12.07
2022-11-29T01:39:33.550Z,12.02
2022-11-29T01:42:02.479Z,12.30
2022-11-29T01:44:29.875Z,12.57
2022-11-29T01:46:58.004Z,11.57
2022-11-29T01:49:28.624Z,12.93
2022-11-29T01:51:59.734Z,12.05
2022-11-29T01:54:27.857Z,12.20
2022-11-29T01:56:55.434Z,12.93
2022-11-29T01:59:28.954Z,12.23
2022-11-29T02:02:05.049Z,12.45
2022-11-29T02:04:33.526Z,12.88
2022-11-29T02:07:01.317Z,12.85
2022-11-29T02:09:29.207Z,12.27
2022-11-29T02:12:15.339Z,12.30
2022-11-29T02:15:02.370Z,11.30
2022-11-29T02:17:33.047Z,12.43
2022-11-29T02:20:19.005Z,12.82
2022-11-29T02:22:58.566Z,12.73
2022-11-29T02:25:44.864Z,12.15
2022-11-29T02:28:31.289Z,12.15
2022-11-29T02:31:05.361Z,12.40
2022-11-29T02:33:38.935Z,12.70
2022-11-29T02:36:25.218Z,12.10
2022-11-29T02:39:03.649Z,13.23
2022-11-29T02:41:49.617Z,13.20
2022-11-29T02:44:29.449Z,12.88
2022-11-29T02:46:59.917Z,12.57
2022-11-29T02:49:30.624Z,13.13
2022-11-29T02:52:19.696Z,12.07
2022-11-29T02:54:57.907Z,12.10
2022-11-29T02:57:30.773Z,11.95
2022-11-29T03:00:02.515Z,12.95
2022-11-29T03:02:39.964Z,12.27
2022-11-29T03:05:18.459Z,11.70
2022-11-29T03:07:46.008Z,11.88
2022-11-29T03:10:31.974Z,11.95
2022-11-29T03:12:59.999Z,13.18
2022-11-29T03:15:32.649Z,12.00
2022-11-29T03:18:03.081Z,12.32
2022-11-29T03:20:30.594Z,11.57
2022-11-29T03:23:11.058Z,11.63
2022-11-29T03:25:38.565Z,11.85
2022-11-29T03:28:12.464Z,11.48
2022-11-29T03:30:42.195Z,12.15
2022-11-29T03:33:23.916Z,12.18
2022-11-29T03:35:59.385Z,11.30
2022-11-29T03:38:46.554Z,12.02
2022-11-29T03:41:16.937Z,11.63
2022-11-29T03:43:48.204Z,13.27
2022-11-29T03:46:24.674Z,10.98
2022-11-29T03:49:03.898Z,11.65
2022-11-29T03:51:37.744Z,11.23
2022-11-29T03:54:11.096Z,10.82
2022-11-29T03:56:40.495Z,11.60
2022-11-29T03:59:26.614Z,12.13
2022-11-29T04:02:13.052Z,10.90
2022-11-29T04:04:56.723Z,12.20
2022-11-29T04:07:33.636Z,11.13
2022-11-29T04:10:07.249Z,11.93
2022-11-29T04:12:46.197Z,12.52
2022-11-29T04:15:22.744Z,12.48
2022-11-29T04:18:03.304Z,11.77
2022-11-29T04:20:34.939Z,11.63
2022-11-29T04:23:25.498Z,11.60
2022-11-29T04:25:53.327Z,11.32
2022-11-29T04:28:34.324Z,12.02
2022-11-29T04:31:12.874Z,11.73
2022-11-29T04:33:46.644Z,11.38
2022-11-29T04:36:14.105Z,12.57
2022-11-29T04:39:00.384Z,12.23
2022-11-29T04:41:39.912Z,12.73
2022-11-29T04:44:23.834Z,12.88
2022-11-29T04:46:51.463Z,12.27
2022-11-29T04:49:37.974Z,12.93
2022-11-29T04:52:21.024Z,13.57
2022-11-29T04:54:53.144Z,14.32
2022-11-29T04:57:21.027Z,14.07
2022-11-29T05:00:01.128Z,14.05
2022-11-29T05:02:38.131Z,14.15
2022-11-29T05:05:25.019Z,12.77
2022-11-29T05:08:11.556Z,13.40
2022-11-29T05:10:57.577Z,14.38
2022-11-29T05:13:50.813Z,13.98
2022-11-29T05:16:33.104Z,13.93
2022-11-29T05:19:16.374Z,14.77
2022-11-29T05:22:02.757Z,14.50
2022-11-29T05:24:30.436Z,14.70
2022-11-29T05:27:01.026Z,16.30
2022-11-29T05:29:46.684Z,14.70
2022-11-29T05:32:23.225Z,14.50
2022-11-29T05:35:09.513Z,15.63
2022-11-29T05:37:45.483Z,15.77
2022-11-29T05:40:19.136Z,15.27
2022-11-29T05:43:05.178Z,15.30
2022-11-29T05:45:32.745Z,14.55
2022-11-29T05:48:03.244Z,14.98
2022-11-29T05:50:39.644Z,15.63
2022-11-29T05:53:23.097Z,15.10
2022-11-29T05:55:50.433Z,14.57
2022-11-29T05:58:17.804Z,15.55
2022-11-29T06:00:50.986Z,13.45
2022-11-29T06:03:35.876Z,14.48
2022-11-29T06:06:41.927Z,14.90
2022-11-29T06:09:22.948Z,14.35
2022-11-29T06:11:53.063Z,14.77
2022-11-29T06:14:43.840Z,15.00
2022-11-29T06:17:35.723Z,16.15
2022-11-29T06:20:20.984Z,15.35
2022-11-29T06:22:49.554Z,15.13
2022-11-29T06:25:29.534Z,15.93
2022-11-29T06:28:02.405Z,15.38
2022-11-29T06:30:36.567Z,14.23
2022-11-29T06:33:11.729Z,14.98
2022-11-29T06:35:46.184Z,15.30
2022-11-29T06:38:16.674Z,14.50
2022-11-29T06:40:44.474Z,15.98
2022-11-29T06:43:12.327Z,15.13
2022-11-29T06:45:42.647Z,15.35
2022-11-29T06:51:50.315Z,14.90
2022-11-29T06:54:25.326Z,15.45
2022-11-29T06:57:11.286Z,15.45
2022-11-29T06:59:44.791Z,15.75
2022-11-29T07:02:35.707Z,15.35
2022-11-29T07:05:21.923Z,15.13
2022-11-29T07:07:49.702Z,13.98
2022-11-29T07:10:18.445Z,15.63
2022-11-29T07:12:47.364Z,15.48
2022-11-29T07:15:24.126Z,15.88
2022-11-29T07:18:13.676Z,16.15
2022-11-29T07:20:53.102Z,15.60
2022-11-29T07:23:47.102Z,15.38
2022-11-29T07:26:42.240Z,16.30
2022-11-29T07:29:28.693Z,16.67
2022-11-29T07:32:05.498Z,16.33
2022-11-29T07:34:51.868Z,15.82
2022-11-29T07:37:25.657Z,15.90
2022-11-29T07:40:13.483Z,16.55
2022-11-29T07:43:04.864Z,16.85
2022-11-29T07:45:33.472Z,17.88
2022-11-29T07:48:02.613Z,17.15
2022-11-29T07:50:30.855Z,17.23
2022-11-29T07:52:58.638Z,16.15
2022-11-29T07:55:27.477Z,17.33
2022-11-29T07:57:56.409Z,16.63
2022-11-29T08:00:23.797Z,19.13
2022-11-29T08:02:51.812Z,17.25
2022-11-29T08:05:19.589Z,18.20
2022-11-29T08:07:48.363Z,17.35
2022-11-29T08:10:17.415Z,19.08
2022-11-29T08:12:50.612Z,17.85
2022-11-29T08:15:20.728Z,18.02
2022-11-29T08:17:48.593Z,17.50
2022-11-29T08:20:17.179Z,18.52
2022-11-29T08:22:44.712Z,19.98
2022-11-29T08:25:15.278Z,18.00
2022-11-29T08:27:42.641Z,18.08
2022-11-29T08:30:10.708Z,17.73
2022-11-29T08:32:38.192Z,18.10
2022-11-29T08:35:05.816Z,18.27
2022-11-29T08:37:34.555Z,19.85
2022-11-29T08:40:05.117Z,18.42
2022-11-29T08:42:32.681Z,17.38
2022-11-29T08:45:00.211Z,18.10
2022-11-29T08:47:36.785Z,18.45
2022-11-29T08:50:14.549Z,17.15
2022-11-29T08:53:05.492Z,17.17
2022-11-29T08:55:34.365Z,18.10
2022-11-29T08:58:06.886Z,19.02
2022-11-29T09:00:34.806Z,18.83
2022-11-29T09:03:21.853Z,18.45
2022-11-29T09:05:49.300Z,18.00
2022-11-29T09:08:16.906Z,16.63
2022-11-29T09:10:45.393Z,17.90
2022-11-29T09:13:12.819Z,18.05
2022-11-29T09:15:42.444Z,17.88
2022-11-29T09:18:13.767Z,17.33
2022-11-29T09:20:46.203Z,17.30
2022-11-29T09:23:16.112Z,17.38
2022-11-29T09:25:52.624Z,17.13
2022-11-29T09:28:23.024Z,17.38
2022-11-29T09:30:54.301Z,16.83
2022-11-29T09:33:25.179Z,17.08
2022-11-29T09:36:01.364Z,17.83
2022-11-29T09:38:31.376Z,16.13
2022-11-29T09:41:08.504Z,15.63
2022-11-29T09:44:00.436Z,16.25
2022-11-29T09:49:41.364Z,16.15
2022-11-29T09:52:29.917Z,15.43
2022-11-29T09:55:06.371Z,15.63
2022-11-29T09:57:36.424Z,15.27
2022-11-29T10:00:08.703Z,15.50
2022-11-29T10:02:48.329Z,16.05
2022-11-29T10:05:26.396Z,16.60
2022-11-29T10:08:02.646Z,17.15
2022-11-29T10:10:41.584Z,17.60
2022-11-29T10:13:35.072Z,16.83
2022-11-29T10:16:38.844Z,16.58
2022-11-29T10:19:14.046Z,17.25
2022-11-29T10:21:44.757Z,16.90
2022-11-29T10:24:18.369Z,17.65
2022-11-29T10:26:49.796Z,17.95
2022-11-29T10:29:19.510Z,16.98
2022-11-29T10:31:52.524Z,18.33
2022-11-29T10:34:23.632Z,17.23
2022-11-29T10:36:55.911Z,17.67
2022-11-29T10:39:39.368Z,18.15
2022-11-29T10:42:30.151Z,18.02
2022-11-29T10:44:57.742Z,18.08
2022-11-29T10:47:25.557Z,17.15
2022-11-29T10:49:53.151Z,16.67
2022-11-29T10:52:22.427Z,19.08
2022-11-29T10:54:50.792Z,18.75
2022-11-29T10:57:22.551Z,18.90
2022-11-29T11:00:05.016Z,17.80
2022-11-29T11:02:35.392Z,17.58
2022-11-29T11:05:03.296Z,17.73
2022-11-29T11:07:35.890Z,17.63
2022-11-29T11:10:06.513Z,17.23
2022-11-29T11:12:35.153Z,17.60
2022-11-29T11:15:17.433Z,17.52
2022-11-29T11:17:57.110Z,16.70
2022-11-29T11:20:25.327Z,17.45
2022-11-29T11:23:03.921Z,17.27
2022-11-29T11:25:35.226Z,18.17
2022-11-29T11:28:17.728Z,17.13
2022-11-29T11:30:52.772Z,17.42
2022-11-29T11:33:23.227Z,17.38
2022-11-29T11:36:05.050Z,17.17
2022-11-29T11:38:33.142Z,16.77
2022-11-29T11:41:14.443Z,17.02
2022-11-29T11:43:41.989Z,17.10
2022-11-29T11:46:10.853Z,15.40
2022-11-29T11:48:42.588Z,16.50
2022-11-29T11:51:15.055Z,17.17
2022-11-29T11:53:44.448Z,15.90
2022-11-29T11:56:14.002Z,16.75
2022-11-29T11:58:44.209Z,15.95
2022-11-29T12:01:31.829Z,17.52
2022-11-29T12:04:07.992Z,16.95
2022-11-29T12:06:41.843Z,17.02
2022-11-29T12:09:10.327Z,16.27
2022-11-29T12:12:13.134Z,16.20
2022-11-29T12:14:44.866Z,18.15
2022-11-29T12:17:20.201Z,16.60
2022-11-29T12:19:54.834Z,16.73
2022-11-29T12:22:27.946Z,16.15
2022-11-29T12:25:01.364Z,15.50
2022-11-29T12:27:28.742Z,17.10
2022-11-29T12:29:57.167Z,17.50
2022-11-29T12:32:31.257Z,18.25
2022-11-29T12:35:16.080Z,16.88
2022-11-29T12:37:56.685Z,18.70
2022-11-29T12:40:29.382Z,17.70
2022-11-29T12:43:19.558Z,19.13
2022-11-29T12:45:54.859Z,16.90
2022-11-29T12:48:41.042Z,18.13
2022-11-29T12:51:14.588Z,18.58
2022-11-29T12:53:42.143Z,18.25
2022-11-29T12:56:27.172Z,18.08
2022-11-29T12:58:58.561Z,18.40
2022-11-29T13:01:48.771Z,17.92
2022-11-29T13:04:22.139Z,17.10
2022-11-29T13:06:58.723Z,14.57
2022-11-29T13:09:35.178Z,16.92
2022-11-29T13:12:06.328Z,16.20
2022-11-29T13:14:44.111Z,16.35
2022-11-29T13:17:26.458Z,16.85
2022-11-29T13:19:59.691Z,17.65
2022-11-29T13:22:42.677Z,17.10
2022-11-29T13:25:16.117Z,16.13
2022-11-29T13:27:45.909Z,16.85
2022-11-29T13:30:17.125Z,16.42
2022-11-29T13:32:50.848Z,16.13
2022-11-29T13:35:38.818Z,16.55
2022-11-29T13:38:14.826Z,15.88
2022-11-29T13:40:52.864Z,17.67
2022-11-29T13:43:23.378Z,18.55
2022-11-29T13:46:11.725Z,18.48
2022-11-29T13:48:49.743Z,15.57
2022-11-29T13:51:41.447Z,15.00
2022-11-29T13:54:29.883Z,14.77
2022-11-29T13:57:07.763Z,14.55
2022-11-29T13:59:36.985Z,14.73
2022-11-29T14:02:05.693Z,15.32
2022-11-29T14:04:38.579Z,15.02
2022-11-29T14:07:08.304Z,16.13
2022-11-29T14:09:38.798Z,18.05
2022-11-29T14:12:25.227Z,15.88
2022-11-29T14:14:53.074Z,15.70
2022-11-29T14:17:36.059Z,16.35
2022-11-29T14:20:22.210Z,17.10
2022-11-29T14:23:05.247Z,16.45
2022-11-29T14:25:51.246Z,17.33
2022-11-29T14:28:19.374Z,16.92
2022-11-29T14:30:52.674Z,18.52
2022-11-29T14:33:35.750Z,17.87
2022-11-29T14:36:15.343Z,16.92
2022-11-29T14:38:45.961Z,16.27
2022-11-29T14:41:36.852Z,17.15
2022-11-29T14:44:05.973Z,17.17
2022-11-29T14:46:34.204Z,19.85
2022-11-29T14:49:02.682Z,19.05
2022-11-29T14:51:34.749Z,17.98
2022-11-29T14:54:05.486Z,18.60
2022-11-29T14:56:33.193Z,17.95
2022-11-29T14:59:19.599Z,19.85
2022-11-29T15:01:47.476Z,20.70
2022-11-29T15:04:16.335Z,20.65
2022-11-29T15:06:47.616Z,20.10
2022-11-29T15:09:22.233Z,18.92
2022-11-29T15:12:00.440Z,18.67
2022-11-29T15:14:48.493Z,17.50
2022-11-29T15:17:34.369Z,18.40
2022-11-29T15:20:28.237Z,18.05
2022-11-29T15:22:58.830Z,17.80
2022-11-29T15:25:32.096Z,18.95
2022-11-29T15:28:00.834Z,19.17
2022-11-29T15:30:34.619Z,19.88
2022-11-29T15:33:04.189Z,21.13
2022-11-29T15:35:33.003Z,18.85
2022-11-29T15:38:01.387Z,20.98
2022-11-29T15:40:36.057Z,21.05
2022-11-29T15:43:05.500Z,23.08
2022-11-29T15:45:34.809Z,22.40
2022-11-29T15:48:12.995Z,20.88
2022-11-29T15:50:42.564Z,20.25
2022-11-29T15:53:13.084Z,22.23
2022-11-29T15:55:40.759Z,21.98
2022-11-29T15:58:11.980Z,21.10
2022-11-29T16:00:39.736Z,20.33
2022-11-29T16:03:08.503Z,20.65
2022-11-29T16:05:37.539Z,20.33
2022-11-29T16:08:06.952Z,21.83
2022-11-29T16:10:35.445Z,21.92
2022-11-29T16:13:07.831Z,19.58
2022-11-29T16:15:39.656Z,20.92
2022-11-29T16:18:13.185Z,20.48
2022-11-29T16:20:41.148Z,22.17
2022-11-29T16:23:13.662Z,19.35
2022-11-29T16:26:00.214Z,20.02
2022-11-29T16:28:31.109Z,19.52
2022-11-29T16:31:00.323Z,19.83
2022-11-29T16:33:28.304Z,21.60
2022-11-29T16:36:06.319Z,20.50
2022-11-29T16:38:34.051Z,22.98
2022-11-29T16:41:03.004Z,86.38
2022-11-29T16:43:45.615Z,51.13
2022-11-29T16:46:22.164Z,26.85
2022-11-29T16:48:50.863Z,25.10
2022-11-29T16:51:25.176Z,22.52
2022-11-29T16:56:28.939Z,21.08
2022-11-29T16:59:17.169Z,24.13
2022-11-29T17:01:45.594Z,21.35
2022-11-29T17:04:13.184Z,35.63
2022-11-29T17:06:52.597Z,22.98
2022-11-29T17:09:35.194Z,21.95
2022-11-29T17:12:03.416Z,22.02
2022-11-29T17:14:31.996Z,23.48
2022-11-29T17:17:02.980Z,24.20
2022-11-29T17:19:31.234Z,21.98
2022-11-29T17:21:58.835Z,22.63
2022-11-29T17:24:26.427Z,23.45
2022-11-29T17:26:53.947Z,22.33
2022-11-29T17:29:21.476Z,22.23
2022-11-29T17:31:50.695Z,22.90
2022-11-29T17:34:18.504Z,23.00
2022-11-29T17:36:46.144Z,21.67
2022-11-29T17:39:15.840Z,21.02
2022-11-29T17:41:43.559Z,22.90
2022-11-29T17:44:11.066Z,20.63
2022-11-29T17:46:38.648Z,22.20
2022-11-29T17:49:07.467Z,24.20
2022-11-29T17:51:53.922Z,21.42
2022-11-29T17:54:22.862Z,22.42
2022-11-29T17:56:50.715Z,21.45
2022-11-29T17:59:20.609Z,23.45
2022-11-29T18:01:48.320Z,21.65
2022-11-29T18:04:16.518Z,22.85
2022-11-29T18:06:44.340Z,23.27
2022-11-29T18:09:13.137Z,22.33
2022-11-29T18:11:49.998Z,28.90
2022-11-29T18:14:19.553Z,26.42
2022-11-29T18:16:47.268Z,32.72
2022-11-29T18:19:16.372Z,23.83
2022-11-29T18:21:43.984Z,25.30
2022-11-29T18:24:11.745Z,23.67
2022-11-29T18:26:39.998Z,23.90
2022-11-29T18:29:07.823Z,22.85
2022-11-29T18:31:37.126Z,23.10
2022-11-29T18:34:12.056Z,23.55
2022-11-29T18:36:43.170Z,23.20
2022-11-29T18:39:14.269Z,29.92
2022-11-29T18:41:43.237Z,29.73
2022-11-29T18:44:11.956Z,29.67
2022-11-29T18:46:40.424Z,29.73
2022-11-29T18:49:09.365Z,27.83
2022-11-29T18:51:37.709Z,26.77
2022-11-29T18:54:06.114Z,27.17
2022-11-29T18:56:34.636Z,25.20
2022-11-29T18:59:12.256Z,20.45
2022-11-29T19:01:42.539Z,30.83
2022-11-29T19:04:14.339Z,24.20
2022-11-29T19:06:42.532Z,23.75
2022-11-29T19:09:13.407Z,21.70
2022-11-29T19:11:41.184Z,22.48
2022-11-29T19:14:11.762Z,22.63
2022-11-29T19:16:40.235Z,22.65
2022-11-29T19:19:07.674Z,23.58
2022-11-29T19:21:35.177Z,24.02
2022-11-29T19:24:04.012Z,26.05
2022-11-29T19:26:32.045Z,24.20
2022-11-29T19:29:00.711Z,24.50
2022-11-29T19:31:28.401Z,24.85
2022-11-29T19:33:56.026Z,23.52
2022-11-29T19:36:25.146Z,24.60
2022-11-29T19:38:54.329Z,25.88
2022-11-29T19:41:21.998Z,25.23
2022-11-29T19:43:49.906Z,25.95
2022-11-29T19:46:19.093Z,24.58
2022-11-29T19:48:47.075Z,22.05
2022-11-29T19:51:17.797Z,22.15
2022-11-29T19:53:46.636Z,22.98
2022-11-29T19:56:15.714Z,22.77
2022-11-29T19:58:43.765Z,22.92
2022-11-29T20:01:13.127Z,22.45
2022-11-29T20:03:41.015Z,22.05
2022-11-29T20:06:09.489Z,21.35
2022-11-29T20:08:37.687Z,24.77
2022-11-29T20:11:09.906Z,21.27
2022-11-29T20:13:38.197Z,21.17
2022-11-29T20:16:06.949Z,21.00
2022-11-29T20:18:34.744Z,20.10
2022-11-29T20:21:10.884Z,19.55
2022-11-29T20:23:39.213Z,19.73
2022-11-29T20:26:09.894Z,20.60
2022-11-29T20:28:37.450Z,19.73
2022-11-29T20:31:13.186Z,20.65
2022-11-29T20:33:44.585Z,20.58
2022-11-29T20:36:14.894Z,20.88
2022-11-29T20:38:47.385Z,20.35
2022-11-29T20:41:33.629Z,20.77
2022-11-29T20:44:02.874Z,21.48
2022-11-29T20:46:31.136Z,22.02
2022-11-29T20:49:04.740Z,22.40
2022-11-29T20:51:39.226Z,22.65
2022-11-29T20:54:06.755Z,20.42
2022-11-29T20:56:34.598Z,21.15
2022-11-29T20:59:02.094Z,21.08
2022-11-29T21:01:30.006Z,20.10
2022-11-29T21:03:58.383Z,21.52
2022-11-29T21:06:25.947Z,19.55
2022-11-29T21:08:54.518Z,21.55
2022-11-29T21:11:22.180Z,20.13
2022-11-29T21:13:50.004Z,21.05
2022-11-29T21:16:17.890Z,20.52
2022-11-29T21:18:45.515Z,21.25
2022-11-29T21:21:13.165Z,20.15
2022-11-29T21:23:43.714Z,19.67
2022-11-29T21:26:17.024Z,21.58
2022-11-29T21:28:57.464Z,21.00
2022-11-29T21:31:25.262Z,20.23
2022-11-29T21:33:52.940Z,21.55
2022-11-29T21:36:20.705Z,21.73
2022-11-29T21:38:53.893Z,21.67
2022-11-29T21:44:06.063Z,20.40
2022-11-29T21:46:34.672Z,20.27
2022-11-29T21:49:02.206Z,20.10
2022-11-29T21:51:29.662Z,21.77
2022-11-29T21:53:57.046Z,19.38
2022-11-29T21:56:24.543Z,21.67
2022-11-29T21:58:52.038Z,19.75
2022-11-29T22:01:20.326Z,20.23
2022-11-29T22:03:48.504Z,20.67
2022-11-29T22:06:21.107Z,20.23
2022-11-29T22:08:49.435Z,21.10
2022-11-29T22:11:31.183Z,20.58
2022-11-29T22:14:15.255Z,21.20
2022-11-29T22:16:48.945Z,26.33
2022-11-29T22:19:36.754Z,22.65
2022-11-29T22:22:06.124Z,21.15
2022-11-29T22:24:35.477Z,21.05
2022-11-29T22:27:03.332Z,20.40
2022-11-29T22:29:30.698Z,21.17
2022-11-29T22:31:59.674Z,19.17
2022-11-29T22:34:27.345Z,21.77
2022-11-29T22:36:55.081Z,21.50
2022-11-29T22:39:22.877Z,21.58
2022-11-29T22:41:54.183Z,21.20
2022-11-29T22:44:22.274Z,21.10
2022-11-29T22:46:49.893Z,20.40
2022-11-29T22:49:17.382Z,21.17
2022-11-29T22:51:44.728Z,21.10
2022-11-29T22:54:15.560Z,20.67
2022-11-29T22:56:43.969Z,21.02
2022-11-29T22:59:11.714Z,22.35
2022-11-29T23:01:40.055Z,21.30
2022-11-29T23:04:08.337Z,22.17
2022-11-29T23:06:37.119Z,22.17
2022-11-29T23:09:10.802Z,21.85
2022-11-29T23:11:38.787Z,22.27
2022-11-29T23:14:06.297Z,21.25
2022-11-29T23:16:34.328Z,22.70
2022-11-29T23:19:02.207Z,21.00
2022-11-29T23:21:30.966Z,22.80
2022-11-29T23:24:01.739Z,21.35
2022-11-29T23:26:29.079Z,21.48
2022-11-29T23:28:56.895Z,21.83
2022-11-29T23:31:24.993Z,22.25
2022-11-29T23:33:52.494Z,21.33
2022-11-29T23:36:20.216Z,22.17
2022-11-29T23:38:48.566Z,22.50
2022-11-29T23:41:16.380Z,21.85
2022-11-29T23:43:44.005Z,21.95
2022-11-29T23:46:14.084Z,22.67
2022-11-29T23:48:41.978Z,21.02
2022-11-29T23:51:09.695Z,22.42
2022-11-29T23:53:37.204Z,21.70
2022-11-29T23:56:06.348Z,22.25
2022-11-29T23:58:34.678Z,22.38
